Time;durP1;ratioP1;P1;durP2;ratioP2;P2;SDS_P1;SDS_P2;PMS_P1;PMS_P2;Temp;Humidity;BMP_temperature;BMP_pressure;BME280_temperature;BME280_humidity;BME280_pressure;Samples;Min_cycle;Max_cycle;Signal;HPM_P1;HPM_P2
2023/04/28 00:00:11;;;;;;;7.10;5.73;;;;;;;4.06;100.00;101674.66;6091912;23;20214;-68
2023/04/28 00:02:37;;;;;;;7.80;6.50;;;;;;;4.72;100.00;101772.38;6089855;23;20151;-68
2023/04/28 00:05:03;;;;;;;6.80;6.10;;;;;;;4.75;100.00;101761.47;6090906;23;20420;-68
2023/04/28 00:07:28;;;;;;;7.87;7.17;;;;;;;4.17;100.00;101675.53;6091424;23;20178;-68
2023/04/28 00:09:55;;;;;;;7.93;7.13;;;;;;;2.24;100.00;101369.81;6099765;23;20639;-72
2023/04/28 00:12:21;;;;;;;9.33;6.60;;;;;;;2.51;100.00;101434.59;6119731;23;20150;-72
2023/04/28 00:14:46;;;;;;;6.37;5.77;;;;;;;4.73;100.00;101762.59;6119735;23;20464;-72
2023/04/28 00:17:11;;;;;;;7.87;6.77;;;;;;;4.69;100.00;101762.03;6121084;23;20181;-71
2023/04/28 00:19:37;;;;;;;7.73;6.93;;;;;;;4.59;100.00;101749.69;6120183;23;20244;-72
2023/04/28 00:22:03;;;;;;;8.90;8.00;;;;;;;4.43;100.00;101631.53;6119647;23;20169;-72
2023/04/28 00:24:29;;;;;;;9.63;6.60;;;;;;;4.27;100.00;101599.38;6121593;23;20292;-72
2023/04/28 00:26:56;;;;;;;11.53;6.40;;;;;;;4.60;100.00;101661.03;6120027;23;20867;-72
2023/04/28 00:29:21;;;;;;;8.53;7.27;;;;;;;4.87;100.00;101716.16;6122627;23;20579;-72
2023/04/28 00:31:47;;;;;;;8.33;7.13;;;;;;;5.03;100.00;101652.59;6122245;23;20452;-72
2023/04/28 00:34:13;;;;;;;8.20;6.73;;;;;;;4.32;100.00;101609.59;6120244;23;20185;-72
2023/04/28 00:36:39;;;;;;;7.70;6.80;;;;;;;4.70;100.00;101622.84;6122047;23;20158;-71
2023/04/28 00:39:04;;;;;;;7.90;6.33;;;;;;;4.01;100.00;101642.38;6121997;23;20778;-72
2023/04/28 00:41:30;;;;;;;14.97;7.37;;;;;;;4.30;100.00;101633.59;6122648;23;20229;-72
2023/04/28 00:43:55;;;;;;;6.80;5.63;;;;;;;4.81;100.00;101730.00;6121748;23;20156;-72
2023/04/28 00:46:25;;;;;;;6.60;5.90;;;;;;;4.63;100.00;101685.53;6119926;23;20156;-71
2023/04/28 00:48:52;;;;;;;8.07;6.30;;;;;;;4.46;100.00;101566.66;6122269;23;20285;-72
2023/04/28 00:51:17;;;;;;;7.20;6.43;;;;;;;4.20;100.00;101623.00;6122670;23;20822;-72
2023/04/28 00:53:43;;;;;;;8.73;5.73;;;;;;;3.91;100.00;101646.81;6121926;23;20426;-72
2023/04/28 00:56:09;;;;;;;6.70;5.97;;;;;;;4.10;100.00;101631.91;6122117;23;20154;-72
2023/04/28 00:58:35;;;;;;;8.43;6.30;;;;;;;4.38;100.00;101662.97;6120010;23;20385;-72
2023/04/28 01:01:07;;;;;;;7.87;6.40;;;;;;;4.34;100.00;101664.25;6121602;23;20224;-72
2023/04/28 01:03:36;;;;;;;7.10;5.30;;;;;;;4.26;100.00;101712.72;6122186;23;20149;-72
2023/04/28 01:06:03;;;;;;;6.60;5.77;;;;;;;4.23;100.00;101596.16;6120813;23;20875;-72
2023/04/28 01:08:30;;;;;;;8.67;6.70;;;;;;;3.79;100.00;101578.88;6119962;23;20377;-72
2023/04/28 01:10:55;;;;;;;7.20;6.17;;;;;;;4.00;100.00;101611.50;6117380;23;20409;-72
2023/04/28 01:13:21;;;;;;;6.10;5.50;;;;;;;4.00;100.00;101600.88;6118845;23;20422;-72
2023/04/28 01:15:47;;;;;;;7.30;6.60;;;;;;;3.95;100.00;101546.53;6120578;23;20168;-72
2023/04/28 01:18:12;;;;;;;6.63;5.93;;;;;;;4.24;100.00;101604.97;6119518;23;20157;-72
2023/04/28 01:20:38;;;;;;;8.00;6.03;;;;;;;3.88;100.00;101569.28;6119742;23;20170;-72
2023/04/28 01:23:03;;;;;;;7.33;6.03;;;;;;;3.69;100.00;101509.88;6121304;23;20220;-71
2023/04/28 01:25:29;;;;;;;9.30;6.80;;;;;;;3.91;100.00;101587.59;6120427;23;20205;-72
2023/04/28 01:27:55;;;;;;;7.00;6.00;;;;;;;3.15;100.00;101545.59;6120742;23;20161;-72
2023/04/28 01:30:20;;;;;;;6.70;5.40;;;;;;;3.50;100.00;101623.91;6121286;23;20169;-72
2023/04/28 01:32:46;;;;;;;6.43;5.83;;;;;;;2.94;100.00;101508.56;6120715;23;20377;-72
2023/04/28 01:35:11;;;;;;;7.47;5.80;;;;;;;3.90;100.00;101666.38;6120199;23;20165;-72
2023/04/28 01:37:36;;;;;;;10.00;6.20;;;;;;;3.54;100.00;101551.88;6120385;23;20585;-71
2023/04/28 01:40:02;;;;;;;6.13;5.60;;;;;;;3.22;100.00;101605.09;6121405;23;20614;-72
2023/04/28 01:42:28;;;;;;;9.60;5.70;;;;;;;3.29;100.00;101574.41;6120884;23;20510;-72
2023/04/28 01:44:53;;;;;;;6.70;6.00;;;;;;;3.83;100.00;101644.00;6120018;23;20429;-72
2023/04/28 01:47:19;;;;;;;7.73;6.30;;;;;;;4.38;100.00;101649.69;6119053;23;20249;-71
2023/04/28 01:49:46;;;;;;;6.10;5.50;;;;;;;4.29;100.00;101661.16;6119139;23;20248;-71
2023/04/28 01:52:12;;;;;;;7.40;6.10;;;;;;;4.06;100.00;101636.66;6121225;23;20615;-72
2023/04/28 01:54:37;;;;;;;6.50;5.90;;;;;;;3.23;100.00;101526.38;6121855;23;20417;-72
2023/04/28 01:57:03;;;;;;;6.10;5.50;;;;;;;3.59;100.00;101567.41;6121058;23;20817;-71
2023/04/28 01:59:28;;;;;;;6.87;5.70;;;;;;;4.33;100.00;101643.97;6123240;23;20180;-71
2023/04/28 02:01:54;;;;;;;7.00;6.17;;;;;;;4.00;100.00;101651.31;6122886;23;20161;-71
2023/04/28 02:04:20;;;;;;;7.57;6.73;;;;;;;3.42;100.00;101568.06;6122527;23;20172;-71
2023/04/28 02:06:45;;;;;;;6.83;6.13;;;;;;;3.60;100.00;101537.25;6122054;23;20385;-71
2023/04/28 02:09:11;;;;;;;7.90;6.87;;;;;;;4.12;100.00;101641.41;6121879;23;20182;-72
2023/04/28 02:11:36;;;;;;;9.83;6.70;;;;;;;3.99;100.00;101566.50;6120942;23;20172;-72
2023/04/28 02:14:01;;;;;;;7.53;6.00;;;;;;;4.37;100.00;101634.75;6119102;23;20188;-71
2023/04/28 02:16:27;;;;;;;9.03;6.90;;;;;;;4.44;100.00;101627.06;6121025;23;20157;-72
2023/04/28 02:18:52;;;;;;;8.03;6.13;;;;;;;3.81;100.00;101518.56;6121551;23;20713;-71
2023/04/28 02:21:17;;;;;;;8.73;6.97;;;;;;;3.51;100.00;101487.69;6123017;23;20161;-71
2023/04/28 02:23:43;;;;;;;7.10;6.23;;;;;;;4.08;100.00;101517.91;6123978;23;20157;-72
2023/04/28 02:26:08;;;;;;;8.37;6.07;;;;;;;3.77;100.00;101517.19;6121635;23;20232;-72
2023/04/28 02:28:34;;;;;;;7.20;6.50;;;;;;;3.68;100.00;101518.84;6122688;23;20153;-72
2023/04/28 02:31:07;;;;;;;7.40;6.23;;;;;;;3.33;100.00;101469.78;6123780;23;20598;-71
2023/04/28 02:33:33;;;;;;;8.57;6.47;;;;;;;3.62;100.00;101516.75;6121552;23;20190;-72
2023/04/28 02:36:02;;;;;;;10.63;6.57;;;;;;;3.00;100.00;101425.03;6123323;23;20392;-72
2023/04/28 02:38:28;;;;;;;7.83;6.20;;;;;;;4.42;100.00;101567.91;6123699;23;20149;-72
2023/04/28 02:41:01;;;;;;;6.67;5.87;;;;;;;4.36;100.00;101584.41;6123021;23;20411;-72
2023/04/28 02:43:31;;;;;;;9.07;5.47;;;;;;;4.22;100.00;101562.63;6123987;23;20152;-72
2023/04/28 02:45:56;;;;;;;7.67;6.63;;;;;;;3.68;100.00;101513.53;6122132;23;20385;-72
2023/04/28 02:48:23;;;;;;;6.53;5.40;;;;;;;4.07;100.00;101574.59;6123563;23;20424;-71
2023/04/28 02:50:49;;;;;;;9.20;6.50;;;;;;;4.15;100.00;101565.97;6123163;23;20864;-71
2023/04/28 02:53:15;;;;;;;8.23;6.80;;;;;;;3.38;100.00;101427.78;6120609;23;20506;-71
2023/04/28 02:55:40;;;;;;;7.20;6.50;;;;;;;4.22;100.00;101554.66;6120800;23;20378;-71
2023/04/28 02:58:06;;;;;;;8.07;6.40;;;;;;;4.34;100.00;101488.09;6120767;23;20229;-71
2023/04/28 03:00:31;;;;;;;6.93;5.83;;;;;;;4.26;100.00;101489.66;6121024;23;20173;-72
2023/04/28 03:02:57;;;;;;;6.80;6.10;;;;;;;4.63;100.00;101467.63;6119374;23;20158;-71
2023/04/28 03:05:23;;;;;;;9.10;5.80;;;;;;;4.82;100.00;101497.78;6119683;23;20348;-72
2023/04/28 03:07:48;;;;;;;7.03;6.00;;;;;;;3.89;100.00;101342.72;6118533;23;20225;-72
2023/04/28 03:10:13;;;;;;;7.03;6.17;;;;;;;4.74;100.00;101445.34;6117913;23;20193;-71
2023/04/28 03:12:39;;;;;;;7.50;6.67;;;;;;;4.01;100.00;101368.94;6120765;23;20494;-71
2023/04/28 03:15:07;;;;;;;9.67;6.17;;;;;;;4.35;100.00;101338.41;6120512;23;20592;-72
2023/04/28 03:17:33;;;;;;;8.60;6.70;;;;;;;3.85;100.00;101336.88;6118536;23;20165;-71
2023/04/28 03:19:58;;;;;;;9.53;7.10;;;;;;;4.99;100.00;101460.63;6120479;23;20397;-71
2023/04/28 03:22:24;;;;;;;7.67;6.87;;;;;;;4.46;100.00;101367.44;6121937;23;20385;-71
2023/04/28 03:24:49;;;;;;;7.97;6.60;;;;;;;4.66;100.00;101411.53;6120867;23;20146;-71
2023/04/28 03:27:15;;;;;;;10.90;7.47;;;;;;;5.26;100.00;101461.59;6118702;23;20146;-71
2023/04/28 03:29:40;;;;;;;11.20;7.40;;;;;;;4.97;100.00;101424.53;6119975;23;20261;-71
2023/04/28 03:32:06;;;;;;;9.33;7.83;;;;;;;4.87;100.00;101367.94;6121438;23;20581;-72
2023/04/28 03:34:31;;;;;;;13.73;7.90;;;;;;;5.49;100.00;101451.38;6121376;23;20180;-72
2023/04/28 03:36:57;;;;;;;9.47;7.50;;;;;;;5.01;100.00;101386.03;6120340;23;20154;-72
2023/04/28 03:39:22;;;;;;;10.60;8.53;;;;;;;5.41;100.00;101449.50;6120403;23;20170;-71
2023/04/28 03:41:47;;;;;;;10.37;8.13;;;;;;;5.27;100.00;101441.19;6121813;23;20150;-72
2023/04/28 03:44:13;;;;;;;8.47;7.60;;;;;;;5.09;100.00;101434.00;6119764;23;20157;-72
2023/04/28 03:46:39;;;;;;;13.50;10.03;;;;;;;5.04;100.00;101422.13;6120376;23;20154;-72
2023/04/28 03:49:05;;;;;;;12.90;9.40;;;;;;;5.18;100.00;101433.09;6118259;23;20185;-72
2023/04/28 03:51:31;;;;;;;11.73;9.10;;;;;;;4.53;100.00;101318.03;6120068;23;20431;-72
2023/04/28 03:53:57;;;;;;;12.93;10.17;;;;;;;4.69;100.00;101320.06;6118777;23;20492;-72
2023/04/28 03:56:23;;;;;;;12.23;9.53;;;;;;;5.07;100.00;101425.31;6119237;23;20405;-72
2023/04/28 03:58:48;;;;;;;15.13;10.80;;;;;;;4.39;100.00;101291.97;6120239;23;20157;-72
2023/04/28 04:01:14;;;;;;;12.63;10.43;;;;;;;4.34;100.00;101252.56;6119561;23;20154;-71
2023/04/28 04:03:39;;;;;;;11.43;9.70;;;;;;;5.09;100.00;101391.47;6120734;23;20271;-71
2023/04/28 04:06:05;;;;;;;10.67;9.57;;;;;;;4.81;100.00;101360.56;6120649;23;20192;-72
2023/04/28 04:08:32;;;;;;;12.90;10.27;;;;;;;4.84;100.00;101341.66;6121836;23;20153;-72
2023/04/28 04:10:57;;;;;;;11.37;8.80;;;;;;;5.44;100.00;101417.25;6120100;23;20409;-72
2023/04/28 04:13:23;;;;;;;11.17;9.60;;;;;;;5.51;100.00;101413.97;6121177;23;20436;-70
2023/04/28 04:15:51;;;;;;;10.50;9.33;;;;;;;5.48;100.00;101403.66;6120861;23;20228;-69
2023/04/28 04:18:17;;;;;;;11.93;9.43;;;;;;;4.84;100.00;101304.44;6121927;23;20165;-69
2023/04/28 04:20:43;;;;;;;13.27;9.77;;;;;;;4.86;100.00;101321.06;6120192;23;20421;-69
2023/04/28 04:23:08;;;;;;;10.83;9.60;;;;;;;4.93;100.00;101317.66;6121989;23;20366;-69
2023/04/28 04:25:34;;;;;;;12.97;9.90;;;;;;;5.61;100.00;101396.97;6122373;23;20153;-69
2023/04/28 04:28:00;;;;;;;10.97;9.17;;;;;;;5.57;100.00;101384.09;6120075;23;20170;-69
2023/04/28 04:30:25;;;;;;;12.03;9.60;;;;;;;5.57;100.00;101390.25;6122421;23;20489;-69
2023/04/28 04:32:51;;;;;;;11.00;9.20;;;;;;;5.32;100.00;101337.81;6121912;23;20607;-69
2023/04/28 04:35:16;;;;;;;11.10;10.00;;;;;;;5.66;100.00;101376.03;6121491;23;20160;-69
2023/04/28 04:37:41;;;;;;;14.10;10.07;;;;;;;5.53;100.00;101372.94;6122545;23;20236;-69
2023/04/28 04:40:08;;;;;;;13.70;10.47;;;;;;;4.97;100.00;101275.66;6122292;23;20178;-69
2023/04/28 04:42:33;;;;;;;13.70;10.00;;;;;;;5.65;100.00;101370.88;6122460;23;20612;-69
2023/04/28 04:44:59;;;;;;;17.23;11.20;;;;;;;5.25;100.00;101300.34;6120564;23;20374;-69
2023/04/28 04:47:24;;;;;;;12.50;10.30;;;;;;;5.73;100.00;101397.56;6122274;23;20154;-70
2023/04/28 04:49:50;;;;;;;14.40;11.50;;;;;;;5.24;100.00;101298.69;6120929;23;20695;-69
2023/04/28 04:52:15;;;;;;;14.30;10.40;;;;;;;4.74;100.00;101207.00;6121760;23;20153;-69
2023/04/28 04:54:41;;;;;;;13.33;10.47;;;;;;;5.14;100.00;101258.84;6121157;23;20174;-69
2023/04/28 04:57:06;;;;;;;14.13;10.90;;;;;;;5.47;100.00;101291.06;6120286;23;20592;-69
2023/04/28 04:59:32;;;;;;;13.73;11.47;;;;;;;4.96;100.00;101199.56;6120848;23;20253;-69
2023/04/28 05:01:57;;;;;;;14.07;11.63;;;;;;;5.94;100.00;101361.81;6121508;23;20157;-69
2023/04/28 05:04:23;;;;;;;13.13;11.00;;;;;;;5.61;100.00;101287.00;6118675;23;20162;-69
2023/04/28 05:06:48;;;;;;;13.70;11.47;;;;;;;6.13;100.00;101369.56;6121620;23;20157;-69
2023/04/28 05:09:14;;;;;;;15.63;12.03;;;;;;;6.16;100.00;101363.94;6120293;23;20177;-69
2023/04/28 05:11:40;;;;;;;14.57;11.77;;;;;;;5.63;100.00;101256.56;6119825;23;20161;-69
2023/04/28 05:14:05;;;;;;;13.47;10.97;;;;;;;6.20;100.00;101364.47;6121443;23;20197;-69
2023/04/28 05:16:31;;;;;;;13.73;11.47;;;;;;;5.16;100.00;101194.91;6120486;23;20386;-69
2023/04/28 05:18:56;;;;;;;15.70;11.93;;;;;;;6.15;100.00;101358.78;6119919;23;20510;-69
2023/04/28 05:21:22;;;;;;;15.00;10.87;;;;;;;5.38;100.00;101242.28;6120543;23;20233;-69
2023/04/28 05:23:47;;;;;;;15.60;11.87;;;;;;;5.07;100.00;101186.03;6119081;23;20495;-71
2023/04/28 05:26:13;;;;;;;12.50;11.00;;;;;;;6.00;100.00;101330.06;6120415;23;20154;-71
2023/04/28 05:28:40;;;;;;;13.83;10.30;;;;;;;5.96;100.00;101322.53;6122480;23;20642;-70
2023/04/28 05:31:06;;;;;;;14.40;11.60;;;;;;;5.18;100.00;101198.25;6120279;23;20162;-72
2023/04/28 05:33:31;;;;;;;16.90;11.90;;;;;;;5.35;100.00;101237.28;6121465;23;20715;-72
2023/04/28 05:35:57;;;;;;;14.37;11.70;;;;;;;6.33;100.00;101344.41;6117604;23;20157;-71
2023/04/28 05:38:22;;;;;;;13.33;11.40;;;;;;;5.84;100.00;101308.63;6119423;23;20153;-72
2023/04/28 05:40:47;;;;;;;13.60;10.67;;;;;;;6.44;100.00;101339.78;6121366;23;20264;-72
2023/04/28 05:43:13;;;;;;;12.03;10.73;;;;;;;5.75;100.00;101270.47;6119549;23;20169;-72
2023/04/28 05:45:39;;;;;;;14.60;11.87;;;;;;;5.92;100.00;101266.06;6119259;23;20581;-72
2023/04/28 05:48:05;;;;;;;13.10;10.70;;;;;;;6.06;100.00;101286.81;6121840;23;20160;-72
2023/04/28 05:50:31;;;;;;;13.30;10.77;;;;;;;6.27;100.00;101264.28;6120536;23;20583;-72
2023/04/28 05:52:56;;;;;;;13.03;10.80;;;;;;;5.85;100.00;101223.28;6119116;23;20162;-72
2023/04/28 05:55:22;;;;;;;15.97;11.70;;;;;;;6.61;100.00;101335.38;6118540;23;20777;-72
2023/04/28 05:57:47;;;;;;;15.00;11.20;;;;;;;6.58;100.00;101336.53;6120694;23;20384;-72
2023/04/28 06:00:14;;;;;;;12.87;11.10;;;;;;;6.70;100.00;101348.56;6120241;23;20177;-72
2023/04/28 06:02:39;;;;;;;12.97;10.57;;;;;;;5.89;100.00;101205.97;6119986;23;20154;-72
2023/04/28 06:05:05;;;;;;;9.90;8.37;;;;;;;6.80;100.00;101340.44;6118380;23;20859;-71
2023/04/28 06:07:31;;;;;;;11.33;10.10;;;;;;;6.82;100.00;101335.75;6119521;23;20154;-71
2023/04/28 06:09:56;;;;;;;14.00;11.60;;;;;;;6.00;100.00;101188.94;6119021;23;20501;-72
2023/04/28 06:12:22;;;;;;;11.83;9.87;;;;;;;5.14;100.00;101047.97;6114157;23;20198;-69
2023/04/28 06:14:47;;;;;;;12.67;9.80;;;;;;;7.00;100.00;101330.31;6119995;23;20178;-70
2023/04/28 06:17:12;;;;;;;13.00;10.10;;;;;;;7.01;100.00;101322.16;6119849;23;20237;-69
2023/04/28 06:19:38;;;;;;;13.20;10.10;;;;;;;7.07;100.00;101315.34;6119450;23;20519;-70
2023/04/28 06:22:04;;;;;;;11.37;9.60;;;;;;;6.89;100.00;101269.31;6120976;23;20174;-69
2023/04/28 06:24:30;;;;;;;12.07;9.80;;;;;;;7.27;100.00;101318.53;6120170;23;20507;-69
2023/04/28 06:26:56;;;;;;;11.93;8.97;;;;;;;7.17;100.00;101324.00;6119745;23;20233;-70
2023/04/28 06:29:22;;;;;;;11.63;9.43;;;;;;;7.21;100.00;101316.53;6120487;23;20169;-69
2023/04/28 06:31:48;;;;;;;12.03;9.13;;;;;;;7.42;100.00;101330.22;6119543;23;20436;-69
2023/04/28 06:34:14;;;;;;;9.97;8.30;;;;;;;7.33;100.00;101325.88;6120720;23;20417;-69
2023/04/28 06:36:39;;;;;;;10.13;8.40;;;;;;;7.25;100.00;101321.34;6120023;23;20253;-69
2023/04/28 06:39:05;;;;;;;11.80;8.50;;;;;;;7.31;100.00;101327.88;6119523;23;20228;-69
2023/04/28 06:41:30;;;;;;;11.20;8.03;;;;;;;7.29;100.00;101315.69;6121121;23;20638;-69
2023/04/28 06:43:56;;;;;;;12.47;8.67;;;;;;;7.42;100.00;101335.56;6120087;23;20150;-69
2023/04/28 06:46:21;;;;;;;13.77;9.50;;;;;;;7.47;100.00;101327.88;6122217;23;20154;-69
2023/04/28 06:48:47;;;;;;;9.33;7.57;;;;;;;7.06;100.00;101249.66;6122398;23;20208;-69
2023/04/28 06:51:13;;;;;;;9.33;8.10;;;;;;;6.99;100.00;101233.47;6095677;23;20183;-69
2023/04/28 06:53:39;;;;;;;9.20;7.53;;;;;;;7.18;100.00;101266.16;6122487;23;20185;-69
2023/04/28 06:56:05;;;;;;;11.50;7.47;;;;;;;7.48;100.00;101318.88;6121871;23;20457;-69
2023/04/28 06:58:30;;;;;;;9.60;8.17;;;;;;;7.30;100.00;101275.50;6122096;23;20416;-69
2023/04/28 07:00:56;;;;;;;9.43;7.43;;;;;;;7.45;100.00;101283.69;6120538;23;20864;-70
2023/04/28 07:03:21;;;;;;;7.90;6.20;;;;;;;7.57;100.00;101292.19;6121496;23;20323;-69
2023/04/28 07:05:47;;;;;;;8.80;7.83;;;;;;;7.75;100.00;101306.16;6120863;23;20158;-69
2023/04/28 07:08:12;;;;;;;8.73;7.30;;;;;;;7.50;100.00;101281.34;6093532;23;20233;-70
2023/04/28 07:10:38;;;;;;;9.03;7.20;;;;;;;7.33;100.00;101251.16;6119999;23;20154;-69
2023/04/28 07:13:03;;;;;;;10.20;8.27;;;;;;;7.63;100.00;101283.50;6121290;23;20631;-70
2023/04/28 07:15:30;;;;;;;8.93;7.10;;;;;;;7.64;100.00;101278.00;6119573;23;20165;-69
2023/04/28 07:17:55;;;;;;;7.70;6.60;;;;;;;7.68;100.00;101260.63;6121330;23;20161;-69
2023/04/28 07:20:21;;;;;;;9.13;6.17;;;;;;;8.03;100.00;101319.97;6094660;23;20394;-70
2023/04/28 07:22:46;;;;;;;7.53;6.70;;;;;;;8.06;100.00;101318.81;6121447;23;20177;-69
2023/04/28 07:25:12;;;;;;;8.60;7.13;;;;;;;8.05;100.00;101306.47;6120784;23;20185;-70
2023/04/28 07:27:37;;;;;;;7.30;6.57;;;;;;;8.12;100.00;101294.06;6122265;23;20164;-69
2023/04/28 07:30:03;;;;;;;9.50;7.40;;;;;;;8.11;100.00;101292.44;6121078;23;20592;-69
2023/04/28 07:32:28;;;;;;;8.80;6.90;;;;;;;7.90;100.00;101266.28;6120053;23;20174;-69
2023/04/28 07:34:54;;;;;;;7.37;6.37;;;;;;;7.96;100.00;101280.78;6119846;23;20417;-70
2023/04/28 07:37:19;;;;;;;8.53;6.63;;;;;;;8.19;100.00;101294.22;6120861;23;20165;-70
2023/04/28 07:39:45;;;;;;;9.43;6.43;;;;;;;7.97;100.00;101259.22;6120834;23;20157;-69
2023/04/28 07:42:11;;;;;;;9.40;6.33;;;;;;;8.13;100.00;101298.44;6122669;23;20220;-69
2023/04/28 07:44:36;;;;;;;8.23;6.70;;;;;;;8.18;100.00;101297.91;6121073;23;20205;-69
2023/04/28 07:47:02;;;;;;;6.83;6.13;;;;;;;8.23;100.00;101301.72;6120823;23;20157;-70
2023/04/28 07:49:28;;;;;;;7.30;6.47;;;;;;;8.19;100.00;101307.56;6120663;23;20249;-69
2023/04/28 07:51:54;;;;;;;9.30;6.67;;;;;;;7.98;100.00;101276.91;6121522;23;20224;-69
2023/04/28 07:54:20;;;;;;;7.90;7.10;;;;;;;8.25;100.00;101304.25;6122165;23;20432;-69
2023/04/28 07:56:45;;;;;;;10.83;7.20;;;;;;;8.25;100.00;101296.22;6120597;23;20381;-69
2023/04/28 07:59:11;;;;;;;7.87;6.37;;;;;;;8.14;100.00;101268.03;6121725;23;20256;-69
2023/04/28 08:01:37;;;;;;;10.23;6.50;;;;;;;8.14;100.00;101258.16;6120004;23;20169;-70
2023/04/28 08:04:02;;;;;;;9.60;6.63;;;;;;;8.40;100.00;101302.53;6121785;23;20150;-70
2023/04/28 08:06:28;;;;;;;8.60;6.60;;;;;;;8.41;100.00;101290.00;6121299;23;20475;-70
2023/04/28 08:08:54;;;;;;;7.20;6.37;;;;;;;8.50;100.00;101288.97;6120728;23;20165;-70
2023/04/28 08:11:21;;;;;;;8.33;6.07;;;;;;;8.47;100.00;101274.09;6120500;23;20192;-70
2023/04/28 08:13:47;;;;;;;7.30;6.57;;;;;;;8.38;100.00;101264.41;6121534;23;20455;-71
2023/04/28 08:16:13;;;;;;;6.83;6.13;;;;;;;8.11;100.00;101207.75;6120362;23;20456;-70
2023/04/28 08:18:39;;;;;;;9.83;6.20;;;;;;;8.47;100.00;101270.59;6120685;23;20828;-71
2023/04/28 08:21:05;;;;;;;10.30;6.20;;;;;;;8.43;100.00;101248.72;6120763;23;20402;-70
2023/04/28 08:23:30;;;;;;;7.40;6.30;;;;;;;8.35;100.00;101246.88;6122909;23;20378;-70
2023/04/28 08:25:57;;;;;;;8.60;6.40;;;;;;;8.54;100.00;101269.72;6121959;23;20237;-71
2023/04/28 08:28:22;;;;;;;6.40;5.73;;;;;;;8.52;100.00;101257.53;6121272;23;20154;-71
2023/04/28 08:30:48;;;;;;;6.10;5.30;;;;;;;8.40;100.00;101237.56;6120985;23;20409;-70
2023/04/28 08:33:13;;;;;;;8.47;6.20;;;;;;;8.43;100.00;101234.53;6120360;23;20178;-70
2023/04/28 08:35:39;;;;;;;6.50;5.90;;;;;;;8.55;100.00;101263.38;6093812;23;20158;-70
2023/04/28 08:38:06;;;;;;;8.10;6.47;;;;;;;8.63;100.00;101275.88;6119951;23;20216;-70
2023/04/28 08:40:31;;;;;;;7.87;5.90;;;;;;;8.66;100.00;101275.53;6120811;23;20154;-70
2023/04/28 08:42:59;;;;;;;9.40;5.80;;;;;;;8.37;100.00;101233.38;6121322;23;20774;-70
2023/04/28 08:45:24;;;;;;;7.47;5.77;;;;;;;8.72;100.00;101269.47;6120418;23;20200;-70
2023/04/28 08:47:51;;;;;;;6.23;5.60;;;;;;;8.09;100.00;101159.00;6120937;23;20377;-71
2023/04/28 08:50:21;;;;;;;7.80;4.67;;;;;;;8.76;100.00;101254.72;6121077;23;20200;-70
2023/04/28 08:52:46;;;;;;;7.60;5.63;;;;;;;8.51;100.00;101218.47;6119392;23;20417;-70
2023/04/28 08:55:12;;;;;;;7.37;5.77;;;;;;;8.79;100.00;101267.75;6121386;23;20377;-70
2023/04/28 08:57:48;;;;;;;7.70;6.07;;;;;;;8.89;100.00;101259.50;6094445;23;20600;-71
2023/04/28 09:00:14;;;;;;;8.87;5.70;;;;;;;8.94;100.00;101258.94;6121244;23;20213;-70
2023/04/28 09:02:42;;;;;;;6.00;5.33;;;;;;;8.94;100.00;101261.63;6120890;23;20401;-70
2023/04/28 09:05:09;;;;;;;6.80;6.10;;;;;;;8.91;100.00;101252.13;6120716;23;20462;-70
2023/04/28 09:07:35;;;;;;;9.37;6.50;;;;;;;8.93;100.00;101254.63;6121257;23;20840;-70
2023/04/28 09:10:23;;;;;;;9.03;6.10;;;;;;;8.88;100.00;101235.59;6120154;23;20513;-70
2023/04/28 09:12:54;;;;;;;7.63;6.33;;;;;;;9.10;100.00;101240.09;6094480;23;20525;-70
2023/04/28 09:15:26;;;;;;;7.10;5.63;;;;;;;9.11;100.00;101244.44;6119846;23;21230;-71
2023/04/28 09:17:52;;;;;;;5.80;5.20;;;;;;;9.20;100.00;101245.22;6120462;23;20432;-71
2023/04/28 09:20:22;;;;;;;6.70;5.23;;;;;;;9.24;100.00;101247.34;6093202;23;20830;-70
2023/04/28 09:22:48;;;;;;;6.40;5.77;;;;;;;9.30;100.00;101248.47;6119897;23;20173;-70
2023/04/28 09:25:15;;;;;;;6.90;6.17;;;;;;;8.70;100.00;101161.81;6094820;23;20406;-71
2023/04/28 09:27:40;;;;;;;9.77;5.87;;;;;;;9.19;100.00;101238.19;6120665;23;20898;-71
2023/04/28 09:30:06;;;;;;;10.27;5.90;;;;;;;9.05;100.00;101200.53;6120749;23;20461;-70
2023/04/28 09:32:32;;;;;;;7.00;5.17;;;;;;;9.30;100.00;101226.25;6122638;23;20169;-70
2023/04/28 09:34:58;;;;;;;6.60;5.57;;;;;;;9.38;100.00;101226.19;6120944;23;20472;-70
2023/04/28 09:37:26;;;;;;;6.47;5.20;;;;;;;9.39;100.00;101238.53;6120081;23;20158;-70
2023/04/28 09:39:53;;;;;;;9.13;6.30;;;;;;;9.11;100.00;101198.94;6094400;23;20725;-70
2023/04/28 09:42:33;;;;;;;7.50;5.30;;;;;;;9.41;100.00;101239.19;6120750;23;20405;-70
2023/04/28 09:45:02;;;;;;;7.70;4.93;;;;;;;9.43;100.00;101240.69;6120545;23;20377;-70
2023/04/28 09:47:28;;;;;;;8.27;5.87;;;;;;;9.41;100.00;101241.88;6095920;23;20390;-70
2023/04/28 09:49:59;;;;;;;6.40;5.00;;;;;;;9.34;100.00;101214.97;6120788;23;20848;-70
2023/04/28 09:52:25;;;;;;;7.20;6.27;;;;;;;9.36;100.00;101201.41;6093774;23;20409;-70
2023/04/28 09:54:52;;;;;;;8.40;5.80;;;;;;;9.44;100.00;101228.94;6119786;23;20416;-70
2023/04/28 09:57:18;;;;;;;6.10;5.50;;;;;;;9.34;100.00;101214.16;6119655;23;20208;-71
2023/04/28 09:59:47;;;;;;;10.57;6.23;;;;;;;9.44;100.00;101217.41;6121111;23;20377;-70
2023/04/28 10:02:17;;;;;;;10.20;5.47;;;;;;;9.49;100.00;101201.63;6120062;23;20394;-70
2023/04/28 10:04:44;;;;;;;6.50;5.10;;;;;;;9.30;100.00;101165.50;6120254;23;20374;-70
2023/04/28 10:07:12;;;;;;;5.57;4.80;;;;;;;9.57;100.00;101201.53;6120534;23;20382;-70
2023/04/28 10:09:38;;;;;;;6.67;5.60;;;;;;;9.54;100.00;101183.16;6120526;23;20814;-71
2023/04/28 10:12:05;;;;;;;8.30;5.90;;;;;;;9.30;100.00;101164.66;6120118;23;20491;-70
2023/04/28 10:14:31;;;;;;;7.27;5.43;;;;;;;9.67;100.00;101196.75;6119665;23;20253;-70
2023/04/28 10:16:58;;;;;;;6.17;5.17;;;;;;;9.56;100.00;101148.16;6121002;23;20458;-70
2023/04/28 10:19:24;;;;;;;7.13;5.90;;;;;;;9.79;100.00;101186.41;6096515;23;20393;-71
2023/04/28 10:22:27;;;;;;;11.53;6.37;;;;;;;9.87;100.00;101183.63;6121391;23;20468;-71
2023/04/28 10:25:01;;;;;;;9.07;6.27;;;;;;;10.02;100.00;101174.75;6121909;23;20161;-70
2023/04/28 10:27:30;;;;;;;8.80;5.10;;;;;;;10.09;100.00;101171.13;6122531;23;20427;-71
2023/04/28 10:30:16;;;;;;;10.27;6.17;;;;;;;10.06;100.00;101171.50;6095944;23;20396;-70
2023/04/28 10:32:42;;;;;;;8.50;5.83;;;;;;;9.88;100.00;101149.63;6121915;23;20816;-70
2023/04/28 10:35:25;;;;;;;8.10;6.00;;;;;;;10.00;100.00;101174.09;6122261;23;20945;-70
2023/04/28 10:38:05;;;;;;;9.20;5.10;;;;;;;9.99;100.00;101167.09;6097388;23;20306;-70
2023/04/28 10:40:35;;;;;;;8.40;5.67;;;;;;;10.01;100.00;101154.31;6123560;23;20516;-70
2023/04/28 10:43:02;;;;;;;5.17;4.67;;;;;;;10.19;100.00;101170.84;6121937;23;20381;-70
2023/04/28 10:45:55;;;;;;;5.80;5.20;;;;;;;10.25;100.00;101172.78;6123350;23;20389;-70
2023/04/28 10:48:32;;;;;;;6.20;4.97;;;;;;;10.39;100.00;101152.34;6122717;23;20448;-70
2023/04/28 10:53:45;;;;;;;10.37;5.67;;;;;;;10.58;100.00;101154.38;6123626;23;20588;-70
2023/04/28 10:56:24;;;;;;;5.53;4.73;;;;;;;10.68;100.00;101153.25;6122686;23;20388;-70
2023/04/28 10:58:51;;;;;;;9.60;5.40;;;;;;;10.75;100.00;101140.72;6123046;23;20386;-70
2023/04/28 11:01:20;;;;;;;7.10;4.90;;;;;;;10.90;100.00;101160.25;6123818;23;20402;-70
2023/04/28 11:04:09;;;;;;;9.27;6.53;;;;;;;10.80;100.00;101152.53;6123585;23;20374;-70
2023/04/28 11:06:33;;;;;;;6.53;5.47;;;;;;;10.78;100.00;101151.88;6122441;23;20756;-70
2023/04/28 11:09:03;;;;;;;5.97;5.37;;;;;;;10.59;100.00;101121.19;6121285;23;20377;-70
2023/04/28 11:11:37;;;;;;;9.43;5.50;;;;;;;10.70;100.00;101124.34;6120620;23;20413;-68
2023/04/28 11:14:18;;;;;;;9.13;5.50;;;;;;;10.83;100.00;101137.91;6121997;23;20504;-68
2023/04/28 11:17:12;;;;;;;8.03;5.40;;;;;;;10.77;100.00;101138.69;6121596;23;20381;-68
2023/04/28 11:19:40;;;;;;;7.00;5.40;;;;;;;10.52;100.00;101095.31;6119590;23;20425;-68
2023/04/28 11:22:16;;;;;;;7.63;5.80;;;;;;;10.82;100.00;101133.56;6120960;23;20777;-68